sensor_id;sensor_type;location;lat;lon;timestamp;temperature;humidity
76537;DHT22;65381;51.254;15.592;2023-02-28T00:00:26;0.00;81.30
76537;DHT22;65381;51.254;15.592;2023-02-28T00:03:13;0.00;81.30
76537;DHT22;65381;51.254;15.592;2023-02-28T00:05:41;0.00;81.40
76537;DHT22;65381;51.254;15.592;2023-02-28T00:08:10;0.00;81.40
76537;DHT22;65381;51.254;15.592;2023-02-28T00:10:39;0.00;81.30
76537;DHT22;65381;51.254;15.592;2023-02-28T00:13:07;-0.10;81.40
76537;DHT22;65381;51.254;15.592;2023-02-28T00:15:36;-0.10;81.40
76537;DHT22;65381;51.254;15.592;2023-02-28T00:18:04;-0.10;81.40
76537;DHT22;65381;51.254;15.592;2023-02-28T00:20:33;0.00;81.50
76537;DHT22;65381;51.254;15.592;2023-02-28T00:23:01;0.00;81.50
76537;DHT22;65381;51.254;15.592;2023-02-28T00:25:34;0.00;81.40
76537;DHT22;65381;51.254;15.592;2023-02-28T00:28:03;0.00;81.30
76537;DHT22;65381;51.254;15.592;2023-02-28T00:30:32;0.00;81.20
76537;DHT22;65381;51.254;15.592;2023-02-28T00:33:04;0.00;81.30
76537;DHT22;65381;51.254;15.592;2023-02-28T00:35:32;0.00;81.40
76537;DHT22;65381;51.254;15.592;2023-02-28T00:38:00;0.00;81.50
76537;DHT22;65381;51.254;15.592;2023-02-28T00:40:29;0.00;81.30
76537;DHT22;65381;51.254;15.592;2023-02-28T00:42:58;0.00;81.40
76537;DHT22;65381;51.254;15.592;2023-02-28T00:45:26;0.00;81.40
76537;DHT22;65381;51.254;15.592;2023-02-28T00:47:54;0.00;81.20
76537;DHT22;65381;51.254;15.592;2023-02-28T00:50:22;0.00;81.20
76537;DHT22;65381;51.254;15.592;2023-02-28T00:52:51;0.00;81.30
76537;DHT22;65381;51.254;15.592;2023-02-28T00:55:20;0.00;81.40
76537;DHT22;65381;51.254;15.592;2023-02-28T00:57:48;0.00;81.20
76537;DHT22;65381;51.254;15.592;2023-02-28T01:00:17;0.00;81.20
76537;DHT22;65381;51.254;15.592;2023-02-28T01:02:45;-0.10;81.20
76537;DHT22;65381;51.254;15.592;2023-02-28T01:05:14;-0.10;81.30
76537;DHT22;65381;51.254;15.592;2023-02-28T01:07:44;0.00;81.30
76537;DHT22;65381;51.254;15.592;2023-02-28T01:10:13;-0.10;81.20
76537;DHT22;65381;51.254;15.592;2023-02-28T01:12:41;-0.10;81.20
76537;DHT22;65381;51.254;15.592;2023-02-28T01:15:11;-0.10;81.20
76537;DHT22;65381;51.254;15.592;2023-02-28T01:17:39;-0.10;81.40
76537;DHT22;65381;51.254;15.592;2023-02-28T01:20:08;-0.10;81.40
76537;DHT22;65381;51.254;15.592;2023-02-28T01:22:37;-0.10;81.30
76537;DHT22;65381;51.254;15.592;2023-02-28T01:25:05;-0.10;81.40
76537;DHT22;65381;51.254;15.592;2023-02-28T01:27:36;-0.10;81.40
76537;DHT22;65381;51.254;15.592;2023-02-28T01:30:09;-0.10;81.50
76537;DHT22;65381;51.254;15.592;2023-02-28T01:32:37;-0.10;81.40
76537;DHT22;65381;51.254;15.592;2023-02-28T01:35:06;-0.10;81.30
76537;DHT22;65381;51.254;15.592;2023-02-28T01:37:34;-0.10;81.40
76537;DHT22;65381;51.254;15.592;2023-02-28T01:40:06;-0.20;81.50
76537;DHT22;65381;51.254;15.592;2023-02-28T01:42:34;-0.10;81.40
76537;DHT22;65381;51.254;15.592;2023-02-28T01:48:06;-0.10;81.30
76537;DHT22;65381;51.254;15.592;2023-02-28T01:50:42;-0.10;81.20
76537;DHT22;65381;51.254;15.592;2023-02-28T01:53:15;-0.10;81.20
76537;DHT22;65381;51.254;15.592;2023-02-28T01:55:48;-0.10;81.20
76537;DHT22;65381;51.254;15.592;2023-02-28T01:58:20;-0.10;81.20
76537;DHT22;65381;51.254;15.592;2023-02-28T02:00:48;-0.10;81.20
76537;DHT22;65381;51.254;15.592;2023-02-28T02:03:20;-0.10;81.20
76537;DHT22;65381;51.254;15.592;2023-02-28T02:05:48;-0.10;81.20
76537;DHT22;65381;51.254;15.592;2023-02-28T02:08:23;-0.10;81.20
76537;DHT22;65381;51.254;15.592;2023-02-28T02:10:58;-0.10;81.20
76537;DHT22;65381;51.254;15.592;2023-02-28T02:41:40;-0.10;81.10
76537;DHT22;65381;51.254;15.592;2023-02-28T02:44:30;-0.10;81.10
76537;DHT22;65381;51.254;15.592;2023-02-28T02:47:09;-0.20;81.20
76537;DHT22;65381;51.254;15.592;2023-02-28T02:49:43;-0.10;81.40
76537;DHT22;65381;51.254;15.592;2023-02-28T02:52:15;-0.10;81.40
76537;DHT22;65381;51.254;15.592;2023-02-28T02:54:47;-0.10;81.30
76537;DHT22;65381;51.254;15.592;2023-02-28T02:57:22;-0.10;81.40
76537;DHT22;65381;51.254;15.592;2023-02-28T02:59:52;0.00;81.40
76537;DHT22;65381;51.254;15.592;2023-02-28T03:02:22;0.00;81.40
76537;DHT22;65381;51.254;15.592;2023-02-28T03:04:58;0.00;81.30
76537;DHT22;65381;51.254;15.592;2023-02-28T03:07:28;0.00;81.30
76537;DHT22;65381;51.254;15.592;2023-02-28T03:09:57;0.00;81.30
76537;DHT22;65381;51.254;15.592;2023-02-28T03:12:40;0.00;81.30
76537;DHT22;65381;51.254;15.592;2023-02-28T03:15:19;0.00;81.20
76537;DHT22;65381;51.254;15.592;2023-02-28T03:20:57;0.00;81.20
76537;DHT22;65381;51.254;15.592;2023-02-28T03:23:48;-0.10;81.20
76537;DHT22;65381;51.254;15.592;2023-02-28T03:26:26;-0.10;81.10
76537;DHT22;65381;51.254;15.592;2023-02-28T03:31:39;0.00;81.10
76537;DHT22;65381;51.254;15.592;2023-02-28T03:34:17;-0.10;81.10
76537;DHT22;65381;51.254;15.592;2023-02-28T03:36:52;-0.10;81.30
76537;DHT22;65381;51.254;15.592;2023-02-28T03:39:28;-0.10;81.40
76537;DHT22;65381;51.254;15.592;2023-02-28T03:42:01;0.00;81.30
76537;DHT22;65381;51.254;15.592;2023-02-28T03:44:42;0.00;81.20
76537;DHT22;65381;51.254;15.592;2023-02-28T03:47:41;0.00;81.20
76537;DHT22;65381;51.254;15.592;2023-02-28T03:50:22;0.00;81.20
76537;DHT22;65381;51.254;15.592;2023-02-28T03:53:24;0.00;81.20
76537;DHT22;65381;51.254;15.592;2023-02-28T03:56:19;-0.10;81.20
76537;DHT22;65381;51.254;15.592;2023-02-28T03:59:17;-0.10;81.20
76537;DHT22;65381;51.254;15.592;2023-02-28T04:01:49;0.00;81.30
76537;DHT22;65381;51.254;15.592;2023-02-28T04:04:19;-0.10;81.40
76537;DHT22;65381;51.254;15.592;2023-02-28T04:06:50;-0.10;81.40
76537;DHT22;65381;51.254;15.592;2023-02-28T04:09:19;-0.10;81.30
76537;DHT22;65381;51.254;15.592;2023-02-28T04:11:52;-0.10;81.10
76537;DHT22;65381;51.254;15.592;2023-02-28T04:14:20;-0.20;81.10
76537;DHT22;65381;51.254;15.592;2023-02-28T04:16:48;-0.20;81.30
76537;DHT22;65381;51.254;15.592;2023-02-28T04:19:17;-0.20;81.40
76537;DHT22;65381;51.254;15.592;2023-02-28T04:21:48;-0.20;81.30
76537;DHT22;65381;51.254;15.592;2023-02-28T04:24:22;-0.20;81.40
76537;DHT22;65381;51.254;15.592;2023-02-28T04:26:53;-0.20;81.50
76537;DHT22;65381;51.254;15.592;2023-02-28T04:29:29;-0.20;81.50
76537;DHT22;65381;51.254;15.592;2023-02-28T04:31:58;-0.20;81.40
76537;DHT22;65381;51.254;15.592;2023-02-28T04:34:30;-0.10;81.30
76537;DHT22;65381;51.254;15.592;2023-02-28T04:37:02;-0.20;81.30
76537;DHT22;65381;51.254;15.592;2023-02-28T04:39:41;-0.20;81.30
76537;DHT22;65381;51.254;15.592;2023-02-28T04:42:10;-0.20;81.30
76537;DHT22;65381;51.254;15.592;2023-02-28T04:44:39;-0.20;81.20
76537;DHT22;65381;51.254;15.592;2023-02-28T04:47:10;-0.20;81.20
76537;DHT22;65381;51.254;15.592;2023-02-28T04:49:38;-0.20;81.20
76537;DHT22;65381;51.254;15.592;2023-02-28T04:52:06;-0.20;81.20
76537;DHT22;65381;51.254;15.592;2023-02-28T04:54:36;-0.20;81.10
76537;DHT22;65381;51.254;15.592;2023-02-28T04:57:06;-0.20;81.20
76537;DHT22;65381;51.254;15.592;2023-02-28T04:59:34;-0.20;81.20
76537;DHT22;65381;51.254;15.592;2023-02-28T05:02:05;-0.10;81.20
76537;DHT22;65381;51.254;15.592;2023-02-28T05:04:35;-0.10;81.20
76537;DHT22;65381;51.254;15.592;2023-02-28T05:07:03;-0.20;81.20
76537;DHT22;65381;51.254;15.592;2023-02-28T05:09:32;-0.10;81.30
76537;DHT22;65381;51.254;15.592;2023-02-28T05:12:01;-0.10;81.40
76537;DHT22;65381;51.254;15.592;2023-02-28T05:14:43;-0.10;81.40
76537;DHT22;65381;51.254;15.592;2023-02-28T05:17:11;-0.10;81.40
76537;DHT22;65381;51.254;15.592;2023-02-28T05:19:40;-0.10;81.20
76537;DHT22;65381;51.254;15.592;2023-02-28T05:22:13;-0.10;81.30
76537;DHT22;65381;51.254;15.592;2023-02-28T05:24:43;-0.10;81.20
76537;DHT22;65381;51.254;15.592;2023-02-28T05:27:11;-0.10;81.30
76537;DHT22;65381;51.254;15.592;2023-02-28T05:29:42;-0.10;81.40
76537;DHT22;65381;51.254;15.592;2023-02-28T05:32:14;-0.10;81.50
76537;DHT22;65381;51.254;15.592;2023-02-28T05:34:43;-0.10;81.40
76537;DHT22;65381;51.254;15.592;2023-02-28T05:37:12;-0.20;81.40
76537;DHT22;65381;51.254;15.592;2023-02-28T05:39:41;-0.20;81.40
76537;DHT22;65381;51.254;15.592;2023-02-28T05:42:10;-0.20;81.50
76537;DHT22;65381;51.254;15.592;2023-02-28T05:44:39;-0.20;81.50
76537;DHT22;65381;51.254;15.592;2023-02-28T05:47:06;-0.20;81.60
76537;DHT22;65381;51.254;15.592;2023-02-28T05:49:35;-0.20;81.50
76537;DHT22;65381;51.254;15.592;2023-02-28T05:52:03;-0.20;81.30
76537;DHT22;65381;51.254;15.592;2023-02-28T05:54:31;-0.20;81.30
76537;DHT22;65381;51.254;15.592;2023-02-28T05:57:00;-0.30;81.30
76537;DHT22;65381;51.254;15.592;2023-02-28T05:59:39;-0.30;81.50
76537;DHT22;65381;51.254;15.592;2023-02-28T06:02:13;-0.30;81.50
76537;DHT22;65381;51.254;15.592;2023-02-28T06:04:44;-0.20;81.60
76537;DHT22;65381;51.254;15.592;2023-02-28T06:07:12;-0.20;81.60
76537;DHT22;65381;51.254;15.592;2023-02-28T06:09:40;-0.20;81.60
76537;DHT22;65381;51.254;15.592;2023-02-28T06:12:10;-0.20;81.50
76537;DHT22;65381;51.254;15.592;2023-02-28T06:14:38;-0.20;81.60
76537;DHT22;65381;51.254;15.592;2023-02-28T06:17:06;-0.20;81.60
76537;DHT22;65381;51.254;15.592;2023-02-28T06:19:37;-0.10;81.50
76537;DHT22;65381;51.254;15.592;2023-02-28T06:22:06;-0.10;81.60
76537;DHT22;65381;51.254;15.592;2023-02-28T06:24:34;-0.10;81.50
76537;DHT22;65381;51.254;15.592;2023-02-28T06:27:02;-0.10;81.70
76537;DHT22;65381;51.254;15.592;2023-02-28T06:29:34;-0.10;81.60
76537;DHT22;65381;51.254;15.592;2023-02-28T06:32:02;-0.10;81.50
76537;DHT22;65381;51.254;15.592;2023-02-28T06:34:32;-0.10;81.60
76537;DHT22;65381;51.254;15.592;2023-02-28T06:37:01;-0.10;81.60
76537;DHT22;65381;51.254;15.592;2023-02-28T06:39:30;0.00;81.60
76537;DHT22;65381;51.254;15.592;2023-02-28T06:41:59;0.00;81.60
76537;DHT22;65381;51.254;15.592;2023-02-28T06:44:27;0.00;81.50
76537;DHT22;65381;51.254;15.592;2023-02-28T06:47:05;0.00;81.40
76537;DHT22;65381;51.254;15.592;2023-02-28T06:49:36;0.00;81.50
76537;DHT22;65381;51.254;15.592;2023-02-28T06:52:05;0.00;81.50
76537;DHT22;65381;51.254;15.592;2023-02-28T06:54:33;0.00;81.40
76537;DHT22;65381;51.254;15.592;2023-02-28T06:57:01;0.00;81.50
76537;DHT22;65381;51.254;15.592;2023-02-28T06:59:29;0.00;81.70
76537;DHT22;65381;51.254;15.592;2023-02-28T07:01:57;0.10;82.00
76537;DHT22;65381;51.254;15.592;2023-02-28T07:04:26;0.20;81.90
76537;DHT22;65381;51.254;15.592;2023-02-28T07:06:55;0.30;81.90
76537;DHT22;65381;51.254;15.592;2023-02-28T07:09:24;0.40;82.00
76537;DHT22;65381;51.254;15.592;2023-02-28T07:11:57;0.60;81.90
76537;DHT22;65381;51.254;15.592;2023-02-28T07:14:25;0.60;81.80
76537;DHT22;65381;51.254;15.592;2023-02-28T07:16:55;0.70;81.90
76537;DHT22;65381;51.254;15.592;2023-02-28T07:19:24;0.80;82.10
76537;DHT22;65381;51.254;15.592;2023-02-28T07:21:52;1.00;82.00
76537;DHT22;65381;51.254;15.592;2023-02-28T07:24:21;1.10;81.80
76537;DHT22;65381;51.254;15.592;2023-02-28T07:26:51;1.20;82.10
76537;DHT22;65381;51.254;15.592;2023-02-28T07:29:19;1.40;82.00
76537;DHT22;65381;51.254;15.592;2023-02-28T07:31:47;1.50;81.90
76537;DHT22;65381;51.254;15.592;2023-02-28T07:34:15;1.60;81.60
76537;DHT22;65381;51.254;15.592;2023-02-28T07:36:44;1.80;82.20
76537;DHT22;65381;51.254;15.592;2023-02-28T07:39:16;2.00;82.40
76537;DHT22;65381;51.254;15.592;2023-02-28T07:41:43;2.30;82.50
76537;DHT22;65381;51.254;15.592;2023-02-28T07:44:12;2.70;82.40
76537;DHT22;65381;51.254;15.592;2023-02-28T07:46:39;2.90;82.00
76537;DHT22;65381;51.254;15.592;2023-02-28T07:49:08;3.00;81.40
76537;DHT22;65381;51.254;15.592;2023-02-28T07:51:36;3.10;81.20
76537;DHT22;65381;51.254;15.592;2023-02-28T07:54:04;3.10;81.10
76537;DHT22;65381;51.254;15.592;2023-02-28T07:56:32;3.10;80.90
76537;DHT22;65381;51.254;15.592;2023-02-28T07:59:01;3.10;80.70
76537;DHT22;65381;51.254;15.592;2023-02-28T08:01:30;3.30;81.30
76537;DHT22;65381;51.254;15.592;2023-02-28T08:03:59;3.50;81.30
76537;DHT22;65381;51.254;15.592;2023-02-28T08:06:27;3.60;81.40
76537;DHT22;65381;51.254;15.592;2023-02-28T08:08:56;3.90;82.00
76537;DHT22;65381;51.254;15.592;2023-02-28T08:11:24;4.50;83.00
76537;DHT22;65381;51.254;15.592;2023-02-28T08:13:52;5.10;82.80
76537;DHT22;65381;51.254;15.592;2023-02-28T08:16:20;5.80;82.90
76537;DHT22;65381;51.254;15.592;2023-02-28T08:18:51;6.30;81.40
76537;DHT22;65381;51.254;15.592;2023-02-28T08:21:20;6.50;81.00
76537;DHT22;65381;51.254;15.592;2023-02-28T08:23:51;7.00;82.30
76537;DHT22;65381;51.254;15.592;2023-02-28T08:26:19;7.50;80.70
76537;DHT22;65381;51.254;15.592;2023-02-28T08:28:49;7.90;81.30
76537;DHT22;65381;51.254;15.592;2023-02-28T08:31:19;8.60;80.70
76537;DHT22;65381;51.254;15.592;2023-02-28T08:33:49;9.30;79.30
76537;DHT22;65381;51.254;15.592;2023-02-28T08:36:21;10.00;78.70
76537;DHT22;65381;51.254;15.592;2023-02-28T08:38:50;10.80;77.50
76537;DHT22;65381;51.254;15.592;2023-02-28T08:41:19;11.10;75.30
76537;DHT22;65381;51.254;15.592;2023-02-28T08:43:47;11.30;73.50
76537;DHT22;65381;51.254;15.592;2023-02-28T08:46:15;11.40;72.20
76537;DHT22;65381;51.254;15.592;2023-02-28T08:48:44;11.10;72.90
76537;DHT22;65381;51.254;15.592;2023-02-28T08:51:16;10.70;71.70
76537;DHT22;65381;51.254;15.592;2023-02-28T08:53:46;10.20;71.20
76537;DHT22;65381;51.254;15.592;2023-02-28T08:56:16;9.40;67.00
76537;DHT22;65381;51.254;15.592;2023-02-28T08:58:47;8.50;67.70
76537;DHT22;65381;51.254;15.592;2023-02-28T09:01:20;7.80;69.40
76537;DHT22;65381;51.254;15.592;2023-02-28T09:03:51;7.20;70.70
76537;DHT22;65381;51.254;15.592;2023-02-28T09:06:21;7.20;72.70
76537;DHT22;65381;51.254;15.592;2023-02-28T09:08:52;7.20;72.60
76537;DHT22;65381;51.254;15.592;2023-02-28T09:11:20;7.20;73.90
76537;DHT22;65381;51.254;15.592;2023-02-28T09:13:50;7.30;73.90
76537;DHT22;65381;51.254;15.592;2023-02-28T09:16:19;7.30;74.00
76537;DHT22;65381;51.254;15.592;2023-02-28T09:18:48;7.60;73.40
76537;DHT22;65381;51.254;15.592;2023-02-28T09:21:17;7.50;71.70
76537;DHT22;65381;51.254;15.592;2023-02-28T09:23:49;8.20;74.80
76537;DHT22;65381;51.254;15.592;2023-02-28T09:26:23;8.90;72.60
76537;DHT22;65381;51.254;15.592;2023-02-28T09:28:53;9.50;73.20
76537;DHT22;65381;51.254;15.592;2023-02-28T09:31:26;11.10;73.30
76537;DHT22;65381;51.254;15.592;2023-02-28T09:33:59;12.80;70.70
76537;DHT22;65381;51.254;15.592;2023-02-28T09:36:31;14.00;69.80
76537;DHT22;65381;51.254;15.592;2023-02-28T09:39:12;15.00;69.10
76537;DHT22;65381;51.254;15.592;2023-02-28T09:41:45;15.40;68.70
76537;DHT22;65381;51.254;15.592;2023-02-28T09:47:12;14.40;69.30
76537;DHT22;65381;51.254;15.592;2023-02-28T09:49:46;14.60;71.10
76537;DHT22;65381;51.254;15.592;2023-02-28T09:52:19;15.30;70.00
76537;DHT22;65381;51.254;15.592;2023-02-28T09:54:48;15.90;70.70
76537;DHT22;65381;51.254;15.592;2023-02-28T09:57:26;16.10;68.40
76537;DHT22;65381;51.254;15.592;2023-02-28T10:03:34;15.30;62.60
76537;DHT22;65381;51.254;15.592;2023-02-28T10:05:41;14.20;65.10
76537;DHT22;65381;51.254;15.592;2023-02-28T10:08:19;14.50;68.30
76537;DHT22;65381;51.254;15.592;2023-02-28T10:10:57;15.20;67.20
76537;DHT22;65381;51.254;15.592;2023-02-28T10:13:27;14.60;64.10
76537;DHT22;65381;51.254;15.592;2023-02-28T10:19:34;11.70;67.10
76537;DHT22;65381;51.254;15.592;2023-02-28T10:24:45;9.90;65.90
76537;DHT22;65381;51.254;15.592;2023-02-28T10:27:16;9.70;68.70
76537;DHT22;65381;51.254;15.592;2023-02-28T10:29:53;11.60;70.00
76537;DHT22;65381;51.254;15.592;2023-02-28T10:32:34;13.90;65.00
76537;DHT22;65381;51.254;15.592;2023-02-28T10:35:16;15.00;62.50
76537;DHT22;65381;51.254;15.592;2023-02-28T10:37:51;16.10;62.60
76537;DHT22;65381;51.254;15.592;2023-02-28T10:43:03;16.70;60.70
76537;DHT22;65381;51.254;15.592;2023-02-28T10:45:33;16.80;62.10
76537;DHT22;65381;51.254;15.592;2023-02-28T10:48:05;16.70;62.80
76537;DHT22;65381;51.254;15.592;2023-02-28T10:53:32;16.90;61.10
76537;DHT22;65381;51.254;15.592;2023-02-28T10:56:24;16.70;62.30
76537;DHT22;65381;51.254;15.592;2023-02-28T11:01:45;16.90;63.40
76537;DHT22;65381;51.254;15.592;2023-02-28T11:04:31;17.30;63.50
76537;DHT22;65381;51.254;15.592;2023-02-28T11:07:22;17.90;62.80
76537;DHT22;65381;51.254;15.592;2023-02-28T11:09:56;18.00;62.80
76537;DHT22;65381;51.254;15.592;2023-02-28T11:12:37;18.60;61.10
76537;DHT22;65381;51.254;15.592;2023-02-28T11:15:24;18.80;61.60
76537;DHT22;65381;51.254;15.592;2023-02-28T11:20:33;19.80;61.40
76537;DHT22;65381;51.254;15.592;2023-02-28T11:23:03;20.00;60.40
76537;DHT22;65381;51.254;15.592;2023-02-28T11:25:36;20.30;60.40
76537;DHT22;65381;51.254;15.592;2023-02-28T11:28:23;20.30;59.10
76537;DHT22;65381;51.254;15.592;2023-02-28T11:31:04;19.60;58.20
76537;DHT22;65381;51.254;15.592;2023-02-28T11:38:59;17.90;56.70
76537;DHT22;65381;51.254;15.592;2023-02-28T11:55:20;9.40;58.60
76537;DHT22;65381;51.254;15.592;2023-02-28T12:11:51;13.90;55.00
76537;DHT22;65381;51.254;15.592;2023-02-28T12:17:12;14.40;55.80
76537;DHT22;65381;51.254;15.592;2023-02-28T12:22:31;15.80;57.00
76537;DHT22;65381;51.254;15.592;2023-02-28T12:27:38;17.80;55.30
76537;DHT22;65381;51.254;15.592;2023-02-28T12:30:21;18.00;55.40
76537;DHT22;65381;51.254;15.592;2023-02-28T12:33:13;18.80;55.40
76537;DHT22;65381;51.254;15.592;2023-02-28T12:35:55;19.30;54.90
76537;DHT22;65381;51.254;15.592;2023-02-28T12:38:38;18.60;53.70
76537;DHT22;65381;51.254;15.592;2023-02-28T12:44:14;17.40;54.60
76537;DHT22;65381;51.254;15.592;2023-02-28T12:46:51;17.00;56.00
76537;DHT22;65381;51.254;15.592;2023-02-28T12:52:00;17.20;56.10
76537;DHT22;65381;51.254;15.592;2023-02-28T12:54:44;16.90;56.70
76537;DHT22;65381;51.254;15.592;2023-02-28T12:57:32;17.10;56.50
76537;DHT22;65381;51.254;15.592;2023-02-28T13:00:18;17.20;55.80
76537;DHT22;65381;51.254;15.592;2023-02-28T13:11:45;16.00;54.30
76537;DHT22;65381;51.254;15.592;2023-02-28T13:16:59;15.50;55.00
76537;DHT22;65381;51.254;15.592;2023-02-28T13:19:35;15.40;54.70
76537;DHT22;65381;51.254;15.592;2023-02-28T13:22:04;14.90;55.00
76537;DHT22;65381;51.254;15.592;2023-02-28T13:27:37;14.60;56.30
76537;DHT22;65381;51.254;15.592;2023-02-28T13:35:48;15.20;56.50
76537;DHT22;65381;51.254;15.592;2023-02-28T13:38:23;15.50;56.30
76537;DHT22;65381;51.254;15.592;2023-02-28T13:40:53;15.60;56.00
76537;DHT22;65381;51.254;15.592;2023-02-28T13:43:20;15.30;55.20
76537;DHT22;65381;51.254;15.592;2023-02-28T13:46:10;14.90;54.70
76537;DHT22;65381;51.254;15.592;2023-02-28T13:48:38;14.00;54.30
76537;DHT22;65381;51.254;15.592;2023-02-28T13:51:48;13.30;54.20
76537;DHT22;65381;51.254;15.592;2023-02-28T14:05:33;12.50;55.70
76537;DHT22;65381;51.254;15.592;2023-02-28T14:08:22;12.10;55.40
76537;DHT22;65381;51.254;15.592;2023-02-28T14:11:03;11.90;55.80
76537;DHT22;65381;51.254;15.592;2023-02-28T14:13:44;11.70;55.40
76537;DHT22;65381;51.254;15.592;2023-02-28T14:16:20;11.50;55.40
76537;DHT22;65381;51.254;15.592;2023-02-28T14:18:58;11.10;55.40
76537;DHT22;65381;51.254;15.592;2023-02-28T14:21:33;10.60;55.90
76537;DHT22;65381;51.254;15.592;2023-02-28T14:32:54;8.30;55.30
76537;DHT22;65381;51.254;15.592;2023-02-28T14:35:52;7.80;55.30
76537;DHT22;65381;51.254;15.592;2023-02-28T14:38:27;7.20;55.90
76537;DHT22;65381;51.254;15.592;2023-02-28T14:41:00;7.00;55.70
76537;DHT22;65381;51.254;15.592;2023-02-28T14:43:31;6.90;55.40
76537;DHT22;65381;51.254;15.592;2023-02-28T14:46:02;6.80;55.70
76537;DHT22;65381;51.254;15.592;2023-02-28T14:48:33;6.80;55.70
76537;DHT22;65381;51.254;15.592;2023-02-28T14:51:03;6.70;55.70
76537;DHT22;65381;51.254;15.592;2023-02-28T14:53:36;6.60;55.70
76537;DHT22;65381;51.254;15.592;2023-02-28T14:56:06;6.50;55.50
76537;DHT22;65381;51.254;15.592;2023-02-28T14:58:34;6.50;55.70
76537;DHT22;65381;51.254;15.592;2023-02-28T15:01:03;6.50;55.40
76537;DHT22;65381;51.254;15.592;2023-02-28T15:03:38;6.30;54.70
76537;DHT22;65381;51.254;15.592;2023-02-28T15:06:16;6.10;54.80
76537;DHT22;65381;51.254;15.592;2023-02-28T15:08:47;5.90;55.20
76537;DHT22;65381;51.254;15.592;2023-02-28T15:11:17;5.90;55.30
76537;DHT22;65381;51.254;15.592;2023-02-28T15:13:52;5.70;55.00
76537;DHT22;65381;51.254;15.592;2023-02-28T15:16:45;5.50;55.10
76537;DHT22;65381;51.254;15.592;2023-02-28T15:19:31;5.30;55.10
76537;DHT22;65381;51.254;15.592;2023-02-28T15:22:08;5.10;55.00
76537;DHT22;65381;51.254;15.592;2023-02-28T15:24:51;4.90;55.20
76537;DHT22;65381;51.254;15.592;2023-02-28T15:27:44;4.80;55.50
76537;DHT22;65381;51.254;15.592;2023-02-28T15:30:28;4.70;55.50
76537;DHT22;65381;51.254;15.592;2023-02-28T15:33:06;4.60;55.50
76537;DHT22;65381;51.254;15.592;2023-02-28T15:35:37;4.50;55.50
76537;DHT22;65381;51.254;15.592;2023-02-28T15:43:32;4.20;55.80
76537;DHT22;65381;51.254;15.592;2023-02-28T15:46:11;4.10;55.90
76537;DHT22;65381;51.254;15.592;2023-02-28T15:48:47;3.90;55.90
76537;DHT22;65381;51.254;15.592;2023-02-28T15:54:04;3.50;56.10
76537;DHT22;65381;51.254;15.592;2023-02-28T15:56:54;3.50;56.20
76537;DHT22;65381;51.254;15.592;2023-02-28T15:59:26;3.30;56.30
76537;DHT22;65381;51.254;15.592;2023-02-28T16:02:17;3.10;56.40
76537;DHT22;65381;51.254;15.592;2023-02-28T16:07:24;3.00;56.50
76537;DHT22;65381;51.254;15.592;2023-02-28T16:09:53;2.90;56.50
76537;DHT22;65381;51.254;15.592;2023-02-28T16:12:26;2.80;56.50
76537;DHT22;65381;51.254;15.592;2023-02-28T16:14:58;2.70;56.50
76537;DHT22;65381;51.254;15.592;2023-02-28T16:17:31;2.60;56.50
76537;DHT22;65381;51.254;15.592;2023-02-28T16:20:01;2.50;56.50
76537;DHT22;65381;51.254;15.592;2023-02-28T16:22:29;2.50;56.60
76537;DHT22;65381;51.254;15.592;2023-02-28T16:24:58;2.40;56.70
76537;DHT22;65381;51.254;15.592;2023-02-28T16:27:36;2.30;56.70
76537;DHT22;65381;51.254;15.592;2023-02-28T16:30:07;2.20;56.70
76537;DHT22;65381;51.254;15.592;2023-02-28T16:32:37;2.10;56.80
76537;DHT22;65381;51.254;15.592;2023-02-28T16:35:10;1.90;56.70
76537;DHT22;65381;51.254;15.592;2023-02-28T16:37:41;1.80;56.80
76537;DHT22;65381;51.254;15.592;2023-02-28T16:40:17;1.60;56.90
76537;DHT22;65381;51.254;15.592;2023-02-28T16:42:50;1.50;57.00
76537;DHT22;65381;51.254;15.592;2023-02-28T16:45:24;1.40;57.10
76537;DHT22;65381;51.254;15.592;2023-02-28T16:47:57;1.20;57.20
76537;DHT22;65381;51.254;15.592;2023-02-28T16:50:29;1.10;57.30
76537;DHT22;65381;51.254;15.592;2023-02-28T16:53:03;1.00;57.40
76537;DHT22;65381;51.254;15.592;2023-02-28T16:55:32;1.00;57.50
76537;DHT22;65381;51.254;15.592;2023-02-28T16:58:03;1.00;57.60
76537;DHT22;65381;51.254;15.592;2023-02-28T17:00:33;0.90;57.60
76537;DHT22;65381;51.254;15.592;2023-02-28T17:03:03;0.80;57.70
76537;DHT22;65381;51.254;15.592;2023-02-28T17:05:37;0.80;57.80
76537;DHT22;65381;51.254;15.592;2023-02-28T17:08:09;0.80;57.90
76537;DHT22;65381;51.254;15.592;2023-02-28T17:10:39;0.60;58.00
76537;DHT22;65381;51.254;15.592;2023-02-28T17:13:07;0.60;58.00
76537;DHT22;65381;51.254;15.592;2023-02-28T17:15:45;0.60;58.00
76537;DHT22;65381;51.254;15.592;2023-02-28T17:18:16;0.60;58.10
76537;DHT22;65381;51.254;15.592;2023-02-28T17:20:47;0.50;58.20
76537;DHT22;65381;51.254;15.592;2023-02-28T17:23:26;0.50;58.30
76537;DHT22;65381;51.254;15.592;2023-02-28T17:25:56;0.50;58.40
76537;DHT22;65381;51.254;15.592;2023-02-28T17:28:27;0.50;58.50
76537;DHT22;65381;51.254;15.592;2023-02-28T17:30:57;0.40;58.50
76537;DHT22;65381;51.254;15.592;2023-02-28T17:33:26;0.40;58.50
76537;DHT22;65381;51.254;15.592;2023-02-28T17:35:56;0.30;58.50
76537;DHT22;65381;51.254;15.592;2023-02-28T17:38:26;0.30;58.60
76537;DHT22;65381;51.254;15.592;2023-02-28T17:41:01;0.20;58.60
76537;DHT22;65381;51.254;15.592;2023-02-28T17:43:32;0.10;58.60
76537;DHT22;65381;51.254;15.592;2023-02-28T17:46:01;0.00;58.70
76537;DHT22;65381;51.254;15.592;2023-02-28T17:48:32;0.00;58.70
76537;DHT22;65381;51.254;15.592;2023-02-28T17:51:02;0.00;58.80
76537;DHT22;65381;51.254;15.592;2023-02-28T17:53:31;-0.10;58.90
76537;DHT22;65381;51.254;15.592;2023-02-28T17:56:01;-0.10;58.90
76537;DHT22;65381;51.254;15.592;2023-02-28T17:58:30;-0.10;59.00
76537;DHT22;65381;51.254;15.592;2023-02-28T18:01:00;-0.10;59.00
76537;DHT22;65381;51.254;15.592;2023-02-28T18:03:29;-0.10;59.00
76537;DHT22;65381;51.254;15.592;2023-02-28T18:06:00;-0.20;59.00
76537;DHT22;65381;51.254;15.592;2023-02-28T18:08:30;-0.20;59.10
76537;DHT22;65381;51.254;15.592;2023-02-28T18:11:02;-0.20;59.00
76537;DHT22;65381;51.254;15.592;2023-02-28T18:13:33;-0.30;59.10
76537;DHT22;65381;51.254;15.592;2023-02-28T18:16:03;-0.30;59.30
76537;DHT22;65381;51.254;15.592;2023-02-28T18:18:33;-0.30;59.40
76537;DHT22;65381;51.254;15.592;2023-02-28T18:21:09;-0.30;59.50
76537;DHT22;65381;51.254;15.592;2023-02-28T18:23:38;-0.30;59.40
76537;DHT22;65381;51.254;15.592;2023-02-28T18:26:17;-0.30;59.40
76537;DHT22;65381;51.254;15.592;2023-02-28T18:28:49;-0.30;59.40
76537;DHT22;65381;51.254;15.592;2023-02-28T18:31:23;-0.40;59.40
76537;DHT22;65381;51.254;15.592;2023-02-28T18:33:52;-0.40;59.40